createdAt,value
2022-12-18T00:01:29.892Z,69.30
2022-12-18T00:03:57.256Z,69.20
2022-12-18T00:06:27.249Z,69.20
2022-12-18T00:08:54.671Z,69.10
2022-12-18T00:11:24.242Z,69.20
2022-12-18T00:13:51.387Z,69.20
2022-12-18T00:16:21.987Z,69.20
2022-12-18T00:18:50.990Z,69.20
2022-12-18T00:21:18.963Z,69.20
2022-12-18T00:23:47.168Z,69.10
2022-12-18T00:26:23.014Z,69.10
2022-12-18T00:28:53.902Z,69.00
2022-12-18T00:31:23.638Z,69.00
2022-12-18T00:33:55.370Z,69.10
2022-12-18T00:36:32.405Z,69.20
2022-12-18T00:39:02.265Z,69.20
2022-12-18T00:41:56.277Z,69.20
2022-12-18T00:44:23.331Z,69.30
2022-12-18T00:46:51.522Z,69.30
2022-12-18T00:49:20.524Z,69.40
2022-12-18T00:51:48.092Z,69.50
2022-12-18T00:54:15.830Z,69.40
2022-12-18T00:56:49.387Z,69.50
2022-12-18T00:59:20.558Z,69.50
2022-12-18T01:01:48.176Z,69.50
2022-12-18T01:04:16.103Z,69.70
2022-12-18T01:06:45.946Z,69.60
2022-12-18T01:09:13.229Z,69.50
2022-12-18T01:11:40.753Z,69.50
2022-12-18T01:14:08.481Z,69.50
2022-12-18T01:16:38.690Z,69.50
2022-12-18T01:19:05.729Z,69.50
2022-12-18T01:21:33.536Z,69.40
2022-12-18T01:24:05.937Z,69.60
2022-12-18T01:26:33.204Z,69.60
2022-12-18T01:29:00.457Z,69.60
2022-12-18T01:31:30.506Z,69.70
2022-12-18T01:33:58.473Z,69.80
2022-12-18T01:36:30.860Z,70.00
2022-12-18T01:39:00.145Z,70.00
2022-12-18T01:41:49.636Z,70.10
2022-12-18T01:44:48.470Z,69.90
2022-12-18T01:47:37.720Z,69.80
2022-12-18T01:50:13.902Z,69.80
2022-12-18T01:52:43.263Z,70.00
2022-12-18T01:55:11.489Z,69.90
2022-12-18T01:57:39.979Z,69.90
2022-12-18T02:00:13.826Z,70.10
2022-12-18T02:02:43.652Z,70.10
2022-12-18T02:05:13.669Z,70.30
2022-12-18T02:07:47.050Z,70.30
2022-12-18T02:10:14.780Z,70.50
2022-12-18T02:12:54.024Z,70.40
2022-12-18T02:16:00.764Z,70.40
2022-12-18T02:18:33.775Z,70.40
2022-12-18T02:21:20.446Z,70.30
2022-12-18T02:24:05.622Z,70.30
2022-12-18T02:26:56.753Z,70.20
2022-12-18T02:29:45.434Z,70.20
2022-12-18T02:32:17.921Z,70.20
2022-12-18T02:34:47.716Z,70.30
2022-12-18T02:37:18.765Z,70.40
2022-12-18T02:39:49.868Z,70.40
2022-12-18T02:42:18.765Z,70.40
2022-12-18T02:44:47.675Z,70.40
2022-12-18T02:47:21.338Z,70.40
2022-12-18T02:50:27.232Z,70.50
2022-12-18T02:53:20.823Z,70.50
2022-12-18T02:55:56.002Z,70.60
2022-12-18T02:58:50.553Z,71.00
2022-12-18T03:01:52.250Z,70.70
2022-12-18T03:04:31.624Z,70.60
2022-12-18T03:07:27.507Z,70.70
2022-12-18T03:09:57.539Z,71.60
2022-12-18T03:12:35.506Z,70.90
2022-12-18T03:15:19.742Z,70.90
2022-12-18T03:17:57.763Z,71.00
2022-12-18T03:20:30.163Z,71.00
2022-12-18T03:23:03.598Z,70.90
2022-12-18T03:25:32.901Z,70.90
2022-12-18T03:28:02.505Z,70.70
2022-12-18T03:30:33.119Z,70.60
2022-12-18T03:33:08.769Z,70.80
2022-12-18T03:35:42.753Z,71.00
2022-12-18T03:38:15.570Z,71.00
2022-12-18T03:41:28.617Z,71.20
2022-12-18T03:45:15.489Z,71.20
2022-12-18T03:48:15.897Z,71.10
2022-12-18T03:51:09.641Z,71.20
2022-12-18T03:54:11.133Z,70.80
2022-12-18T03:57:08.753Z,70.50
2022-12-18T03:59:37.939Z,70.60
2022-12-18T04:02:08.031Z,70.60
2022-12-18T04:04:38.345Z,70.60
2022-12-18T04:07:06.461Z,70.50
2022-12-18T04:09:37.095Z,70.40
2022-12-18T04:12:06.051Z,70.60
2022-12-18T04:14:36.687Z,70.80
2022-12-18T04:17:05.852Z,71.00
2022-12-18T04:19:41.339Z,71.40
2022-12-18T04:22:35.551Z,71.20
2022-12-18T04:25:02.869Z,71.00
2022-12-18T04:27:36.847Z,70.90
2022-12-18T04:30:06.062Z,71.10
2022-12-18T04:32:35.188Z,70.90
2022-12-18T04:35:05.180Z,70.80
2022-12-18T04:37:33.715Z,71.00
2022-12-18T04:40:38.906Z,71.00
2022-12-18T04:43:14.851Z,70.90
2022-12-18T04:46:07.965Z,70.90
2022-12-18T04:48:35.710Z,70.70
2022-12-18T04:51:26.130Z,70.60
2022-12-18T04:53:54.426Z,70.60
2022-12-18T04:56:21.754Z,70.50
2022-12-18T04:58:49.057Z,70.60
2022-12-18T05:01:18.467Z,70.50
2022-12-18T05:03:46.188Z,70.50
2022-12-18T05:06:23.802Z,70.50
2022-12-18T05:08:51.662Z,70.50
2022-12-18T05:11:18.992Z,70.40
2022-12-18T05:13:46.588Z,70.40
2022-12-18T05:16:15.245Z,70.30
2022-12-18T05:18:42.772Z,70.40
2022-12-18T05:21:09.802Z,70.30
2022-12-18T05:23:37.336Z,70.30
2022-12-18T05:26:07.364Z,70.20
2022-12-18T05:28:36.658Z,70.20
2022-12-18T05:31:05.595Z,69.90
2022-12-18T05:33:35.053Z,69.70
2022-12-18T05:36:04.456Z,69.50
2022-12-18T05:38:32.726Z,69.80
2022-12-18T05:40:59.695Z,69.90
2022-12-18T05:43:27.825Z,70.20
2022-12-18T05:45:55.698Z,70.30
2022-12-18T05:48:22.817Z,70.30
2022-12-18T05:50:51.393Z,70.30
2022-12-18T05:53:20.422Z,70.30
2022-12-18T05:55:48.094Z,70.40
2022-12-18T05:58:15.549Z,70.30
2022-12-18T06:00:45.976Z,70.20
2022-12-18T06:03:14.772Z,70.00
2022-12-18T06:05:46.324Z,69.80
2022-12-18T06:08:14.541Z,69.60
2022-12-18T06:10:43.121Z,69.70
2022-12-18T06:13:10.319Z,69.80
2022-12-18T06:15:38.468Z,70.00
2022-12-18T06:18:05.578Z,70.00
2022-12-18T06:20:33.831Z,70.20
2022-12-18T06:23:01.509Z,70.20
2022-12-18T06:25:28.736Z,70.20
2022-12-18T06:27:56.150Z,70.30
2022-12-18T06:30:23.651Z,70.40
2022-12-18T06:32:56.344Z,70.40
2022-12-18T06:35:25.500Z,70.20
2022-12-18T06:37:52.611Z,70.00
2022-12-18T06:40:19.867Z,69.90
2022-12-18T06:42:47.107Z,69.70
2022-12-18T06:45:14.291Z,69.60
2022-12-18T06:47:41.688Z,69.50
2022-12-18T06:50:08.817Z,69.30
2022-12-18T06:52:35.971Z,69.30
2022-12-18T06:55:02.961Z,69.30
2022-12-18T06:57:29.982Z,69.20
2022-12-18T07:00:00.294Z,69.10
2022-12-18T07:02:27.545Z,68.90
2022-12-18T07:04:55.099Z,68.90
2022-12-18T07:07:22.244Z,68.60
2022-12-18T07:09:51.311Z,68.40
2022-12-18T07:12:18.422Z,68.40
2022-12-18T07:14:45.428Z,68.20
2022-12-18T07:17:12.429Z,68.10
2022-12-18T07:19:39.435Z,68.10
2022-12-18T07:22:06.391Z,68.00
2022-12-18T07:24:35.107Z,67.80
2022-12-18T07:27:03.042Z,67.70
2022-12-18T07:29:29.962Z,67.80
2022-12-18T07:31:57.015Z,67.70
2022-12-18T07:34:24.356Z,67.50
2022-12-18T07:36:51.856Z,67.40
2022-12-18T07:39:18.911Z,67.10
2022-12-18T07:42:09.061Z,67.00
2022-12-18T07:44:36.246Z,66.80
2022-12-18T07:47:06.539Z,66.60
2022-12-18T07:49:36.045Z,66.50
2022-12-18T07:52:03.386Z,66.40
2022-12-18T07:54:30.479Z,66.50
2022-12-18T07:56:57.509Z,66.40
2022-12-18T07:59:24.753Z,66.40
2022-12-18T08:01:51.845Z,66.30
2022-12-18T08:04:18.924Z,66.50
2022-12-18T08:06:48.074Z,66.80
2022-12-18T08:09:15.623Z,66.90
2022-12-18T08:11:42.588Z,67.00
2022-12-18T08:14:09.746Z,66.80
2022-12-18T08:16:36.936Z,66.80
2022-12-18T08:19:04.039Z,66.70
2022-12-18T08:21:32.133Z,66.50
2022-12-18T08:24:01.749Z,66.60
2022-12-18T08:26:31.114Z,66.90
2022-12-18T08:29:00.415Z,67.80
2022-12-18T08:31:29.378Z,68.70
2022-12-18T08:33:57.531Z,69.20
2022-12-18T08:36:25.574Z,68.20
2022-12-18T08:38:53.840Z,66.80
2022-12-18T08:41:21.412Z,65.10
2022-12-18T08:44:06.965Z,63.10
2022-12-18T08:46:39.748Z,61.20
2022-12-18T08:49:08.228Z,59.70
2022-12-18T08:51:36.087Z,59.10
2022-12-18T08:54:04.351Z,58.60
2022-12-18T08:56:34.110Z,58.60
2022-12-18T08:59:01.926Z,59.00
2022-12-18T09:01:29.474Z,59.40
2022-12-18T09:03:56.817Z,59.90
2022-12-18T09:06:24.377Z,60.50
2022-12-18T09:08:51.592Z,60.60
2022-12-18T09:11:25.591Z,60.60
2022-12-18T09:13:53.871Z,60.80
2022-12-18T09:16:23.943Z,59.60
2022-12-18T09:19:00.211Z,59.80
2022-12-18T09:21:30.454Z,58.80
2022-12-18T09:23:58.003Z,57.60
2022-12-18T09:26:26.305Z,56.70
2022-12-18T09:28:56.030Z,56.00
2022-12-18T09:31:25.669Z,54.80
2022-12-18T09:33:52.744Z,53.80
2022-12-18T09:36:20.328Z,53.10
2022-12-18T09:38:49.045Z,53.10
2022-12-18T09:41:34.622Z,53.20
2022-12-18T09:44:11.083Z,52.10
2022-12-18T09:46:41.632Z,51.50
2022-12-18T09:49:15.715Z,51.10
2022-12-18T09:51:55.498Z,51.00
2022-12-18T09:54:34.030Z,51.10
2022-12-18T09:57:02.149Z,50.10
2022-12-18T09:59:41.127Z,49.60
2022-12-18T10:02:27.867Z,49.70
2022-12-18T10:05:01.234Z,49.20
2022-12-18T10:07:40.100Z,50.20
2022-12-18T10:10:24.082Z,49.50
2022-12-18T10:13:05.835Z,49.60
2022-12-18T10:16:05.156Z,48.80
2022-12-18T10:19:10.456Z,47.80
2022-12-18T10:21:43.684Z,47.30
2022-12-18T10:24:16.845Z,47.20
2022-12-18T10:26:44.922Z,48.70
2022-12-18T10:29:18.082Z,48.30
2022-12-18T10:31:45.317Z,47.80
2022-12-18T10:34:16.506Z,47.60
2022-12-18T10:36:43.840Z,47.70
2022-12-18T10:39:23.721Z,47.60
2022-12-18T10:41:50.840Z,48.10
2022-12-18T10:44:23.512Z,48.00
2022-12-18T10:47:10.100Z,47.90
2022-12-18T10:49:43.169Z,48.00
2022-12-18T10:52:25.613Z,47.50
2022-12-18T10:55:05.289Z,47.80
2022-12-18T10:57:42.591Z,47.40
2022-12-18T11:00:31.444Z,47.30
2022-12-18T11:02:59.023Z,47.20
2022-12-18T11:05:34.211Z,46.60
2022-12-18T11:08:02.046Z,47.00
2022-12-18T11:10:41.050Z,47.00
2022-12-18T11:13:19.682Z,46.40
2022-12-18T11:15:47.296Z,46.10
2022-12-18T11:18:27.217Z,45.50
2022-12-18T11:20:59.809Z,44.40
2022-12-18T11:23:28.038Z,44.70
2022-12-18T11:26:07.064Z,44.60
2022-12-18T11:28:45.536Z,45.20
2022-12-18T11:31:32.471Z,44.40
2022-12-18T11:36:49.529Z,46.00
2022-12-18T11:39:40.423Z,45.80
2022-12-18T11:42:26.729Z,45.70
2022-12-18T11:45:09.319Z,45.20
2022-12-18T11:47:55.650Z,45.00
2022-12-18T11:50:44.767Z,45.50
2022-12-18T11:53:15.240Z,44.20
2022-12-18T11:56:01.673Z,45.20
2022-12-18T11:58:38.407Z,44.10
2022-12-18T12:01:24.679Z,45.20
2022-12-18T12:04:23.242Z,45.20
2022-12-18T12:07:01.496Z,44.60
2022-12-18T12:10:03.099Z,44.80
2022-12-18T12:12:49.360Z,45.10
2022-12-18T12:15:37.031Z,44.90
2022-12-18T12:18:25.435Z,45.10
2022-12-18T12:21:17.068Z,45.50
2022-12-18T12:24:06.618Z,46.10
2022-12-18T12:26:47.175Z,46.30
2022-12-18T12:29:26.804Z,46.20
2022-12-18T12:32:03.049Z,46.20
2022-12-18T12:34:39.204Z,46.10
2022-12-18T12:37:24.376Z,46.40
2022-12-18T12:39:56.147Z,46.90
2022-12-18T12:43:05.934Z,47.00
2022-12-18T12:45:46.447Z,46.90
2022-12-18T12:48:47.965Z,47.40
2022-12-18T12:51:27.062Z,47.70
2022-12-18T12:53:57.489Z,48.20
2022-12-18T12:56:31.109Z,48.60
2022-12-18T12:59:16.752Z,49.10
2022-12-18T13:02:12.501Z,49.50
2022-12-18T13:05:02.465Z,49.70
2022-12-18T13:07:38.819Z,49.90
2022-12-18T13:10:22.321Z,50.10
2022-12-18T13:12:57.075Z,50.30
2022-12-18T13:15:51.325Z,50.50
2022-12-18T13:18:22.163Z,50.70
2022-12-18T13:21:03.873Z,51.00
2022-12-18T13:23:50.874Z,51.20
2022-12-18T13:26:23.245Z,51.30
2022-12-18T13:28:57.163Z,51.40
2022-12-18T13:31:43.398Z,51.60
2022-12-18T13:34:30.901Z,51.90
2022-12-18T13:37:47.670Z,51.90
2022-12-18T13:40:41.312Z,52.10
2022-12-18T13:43:20.343Z,52.20
2022-12-18T13:46:00.565Z,52.50
2022-12-18T13:48:31.370Z,52.80
2022-12-18T13:51:08.235Z,53.20
2022-12-18T13:53:47.700Z,53.50
2022-12-18T13:56:25.649Z,53.80
2022-12-18T13:59:14.988Z,54.00
2022-12-18T14:02:11.350Z,54.30
2022-12-18T14:04:40.802Z,54.40
2022-12-18T14:07:26.454Z,54.70
2022-12-18T14:10:18.891Z,54.90
2022-12-18T14:13:03.104Z,54.90
2022-12-18T14:15:41.560Z,55.10
2022-12-18T14:18:26.965Z,55.10
2022-12-18T14:20:58.795Z,55.20
2022-12-18T14:23:36.697Z,55.30
2022-12-18T14:26:21.445Z,55.30
2022-12-18T14:28:48.669Z,55.50
2022-12-18T14:31:25.048Z,55.50
2022-12-18T14:33:53.795Z,55.50
2022-12-18T14:36:27.117Z,55.50
2022-12-18T14:38:56.388Z,55.60
2022-12-18T14:41:25.387Z,55.50
2022-12-18T14:43:54.971Z,55.60
2022-12-18T14:46:37.911Z,55.60
2022-12-18T14:49:19.889Z,55.70
2022-12-18T14:51:52.921Z,55.80
2022-12-18T14:54:21.939Z,55.80
2022-12-18T14:56:58.126Z,56.00
2022-12-18T14:59:26.347Z,56.10
2022-12-18T15:02:19.820Z,56.20
2022-12-18T15:04:47.450Z,56.20
2022-12-18T15:07:22.825Z,56.30
2022-12-18T15:10:08.888Z,56.30
2022-12-18T15:12:46.299Z,56.50
2022-12-18T15:15:52.717Z,56.50
2022-12-18T15:18:22.664Z,56.60
2022-12-18T15:21:00.537Z,56.40
2022-12-18T15:23:32.074Z,56.50
2022-12-18T15:26:04.196Z,56.60
2022-12-18T15:28:39.101Z,56.70
2022-12-18T15:31:10.889Z,56.90
2022-12-18T15:33:40.670Z,57.00
2022-12-18T15:36:14.344Z,57.30
2022-12-18T15:38:42.307Z,57.50
2022-12-18T15:41:24.190Z,57.70
2022-12-18T15:43:53.429Z,58.10
2022-12-18T15:46:22.702Z,58.20
2022-12-18T15:49:01.829Z,58.20
2022-12-18T15:51:36.839Z,58.20
2022-12-18T15:54:07.300Z,58.60
2022-12-18T15:56:53.010Z,58.60
2022-12-18T15:59:22.730Z,58.30
2022-12-18T16:01:52.363Z,58.70
2022-12-18T16:04:21.836Z,58.90
2022-12-18T16:09:40.763Z,58.60
2022-12-18T16:12:18.709Z,58.60
2022-12-18T16:14:46.031Z,58.60
2022-12-18T16:17:14.311Z,58.60
2022-12-18T16:19:41.820Z,58.90
2022-12-18T16:22:23.683Z,59.20
2022-12-18T16:24:52.629Z,59.30
2022-12-18T16:27:20.041Z,59.50
2022-12-18T16:29:47.763Z,59.50
2022-12-18T16:32:23.525Z,59.60
2022-12-18T16:34:51.766Z,59.60
2022-12-18T16:37:18.855Z,59.70
2022-12-18T16:39:46.079Z,59.70
2022-12-18T16:42:17.308Z,59.80
2022-12-18T16:44:46.163Z,59.70
2022-12-18T16:47:15.040Z,59.70
2022-12-18T16:49:43.246Z,59.80
2022-12-18T16:52:10.264Z,59.70
2022-12-18T16:54:37.606Z,59.80
2022-12-18T16:57:07.651Z,59.70
2022-12-18T16:59:34.687Z,59.80
2022-12-18T17:02:06.328Z,59.70
2022-12-18T17:04:35.042Z,60.60
2022-12-18T17:07:02.460Z,59.70
2022-12-18T17:09:29.581Z,59.80
2022-12-18T17:11:56.713Z,59.80
2022-12-18T17:14:25.030Z,59.90
2022-12-18T17:17:19.926Z,59.90
2022-12-18T17:19:43.509Z,59.80
2022-12-18T17:22:11.251Z,60.00
2022-12-18T17:24:38.564Z,59.90
2022-12-18T17:27:05.905Z,59.90
2022-12-18T17:29:32.990Z,59.80
2022-12-18T17:32:00.654Z,59.80
2022-12-18T17:34:28.734Z,59.80
2022-12-18T17:36:57.163Z,59.90
2022-12-18T17:39:24.313Z,60.00
2022-12-18T17:41:51.541Z,60.20
2022-12-18T17:44:18.840Z,60.00
2022-12-18T17:46:46.621Z,60.00
2022-12-18T17:49:14.194Z,60.20
2022-12-18T17:51:43.209Z,60.30
2022-12-18T17:54:11.141Z,60.30
2022-12-18T17:56:39.256Z,60.30
2022-12-18T17:59:07.253Z,60.30
2022-12-18T18:01:38.521Z,60.20
2022-12-18T18:04:08.249Z,60.30
2022-12-18T18:06:38.847Z,60.20
2022-12-18T18:09:16.105Z,60.10
2022-12-18T18:12:05.505Z,60.10
2022-12-18T18:14:33.619Z,60.10
2022-12-18T18:17:04.779Z,60.00
2022-12-18T18:19:33.738Z,60.00
2022-12-18T18:22:02.929Z,60.00
2022-12-18T18:24:30.429Z,59.90
2022-12-18T18:26:59.687Z,60.00
2022-12-18T18:29:29.197Z,60.00
2022-12-18T18:31:56.578Z,60.10
2022-12-18T18:34:30.285Z,60.20
2022-12-18T18:37:01.669Z,60.10
2022-12-18T18:39:29.049Z,60.20
2022-12-18T18:41:58.943Z,60.40
2022-12-18T18:44:26.609Z,60.40
2022-12-18T18:46:58.432Z,60.30
2022-12-18T18:49:28.013Z,60.30
2022-12-18T18:51:57.117Z,60.40
2022-12-18T18:54:24.959Z,60.40
2022-12-18T18:59:39.165Z,60.50
2022-12-18T19:02:09.013Z,60.60
2022-12-18T19:04:38.463Z,60.80
2022-12-18T19:07:15.034Z,60.80
2022-12-18T19:09:52.253Z,61.30
2022-12-18T19:12:37.810Z,61.30
2022-12-18T19:15:07.975Z,61.30
2022-12-18T19:17:36.600Z,61.20
2022-12-18T19:20:05.173Z,61.40
2022-12-18T19:22:32.239Z,61.50
2022-12-18T19:24:59.923Z,61.70
2022-12-18T19:27:27.081Z,61.80
2022-12-18T19:29:54.387Z,62.00
2022-12-18T19:32:21.595Z,62.30
2022-12-18T19:34:48.736Z,62.20
2022-12-18T19:37:16.994Z,62.30
2022-12-18T19:39:44.131Z,62.20
2022-12-18T19:42:11.045Z,62.20
2022-12-18T19:44:38.246Z,62.30
2022-12-18T19:47:05.270Z,62.50
2022-12-18T19:49:33.170Z,62.40
2022-12-18T19:52:02.622Z,62.50
2022-12-18T19:54:31.107Z,62.70
2022-12-18T19:56:58.009Z,62.70
2022-12-18T19:59:25.009Z,62.60
2022-12-18T20:01:54.559Z,62.80
2022-12-18T20:04:21.790Z,62.80
2022-12-18T20:06:52.631Z,62.90
2022-12-18T20:09:21.262Z,62.90
2022-12-18T20:11:49.377Z,62.80
2022-12-18T20:14:19.625Z,63.70
2022-12-18T20:16:52.024Z,62.80
2022-12-18T20:19:19.975Z,62.80
2022-12-18T20:21:48.977Z,62.80
2022-12-18T20:24:16.087Z,62.80
2022-12-18T20:26:43.703Z,62.90
2022-12-18T20:29:10.678Z,62.90
2022-12-18T20:31:37.828Z,62.90
2022-12-18T20:34:06.052Z,62.80
2022-12-18T20:36:36.222Z,62.80
2022-12-18T20:39:06.522Z,62.70
2022-12-18T20:41:38.767Z,62.80
2022-12-18T20:44:10.961Z,62.60
2022-12-18T20:46:51.325Z,62.50
2022-12-18T20:49:18.515Z,62.50
2022-12-18T20:51:45.847Z,62.40
2022-12-18T20:54:12.798Z,62.20
2022-12-18T20:56:39.775Z,62.10
2022-12-18T20:59:07.362Z,62.00
2022-12-18T21:01:34.455Z,62.00
2022-12-18T21:04:02.842Z,61.90
2022-12-18T21:06:29.998Z,61.80
2022-12-18T21:08:57.004Z,61.70
2022-12-18T21:11:47.910Z,61.70
2022-12-18T21:14:19.848Z,61.70
2022-12-18T21:16:47.812Z,61.60
2022-12-18T21:19:20.541Z,61.60
2022-12-18T21:21:47.776Z,61.50
2022-12-18T21:24:15.140Z,61.40
2022-12-18T21:26:47.235Z,61.30
2022-12-18T21:29:25.676Z,61.30
2022-12-18T21:31:54.652Z,61.20
2022-12-18T21:34:30.542Z,61.30
2022-12-18T21:36:59.289Z,61.30
2022-12-18T21:39:27.568Z,61.40
2022-12-18T21:42:13.781Z,61.40
2022-12-18T21:44:42.468Z,61.40
2022-12-18T21:47:16.889Z,61.20
2022-12-18T21:49:50.113Z,61.20
2022-12-18T21:52:17.135Z,61.20
2022-12-18T21:54:44.247Z,61.30
2022-12-18T21:57:13.435Z,61.20
2022-12-18T21:59:42.590Z,61.10
2022-12-18T22:02:17.318Z,60.90
2022-12-18T22:04:45.489Z,61.00
2022-12-18T22:07:14.059Z,61.00
2022-12-18T22:09:42.744Z,61.00
2022-12-18T22:12:12.745Z,60.90
2022-12-18T22:14:39.762Z,60.90
2022-12-18T22:17:06.806Z,60.80
2022-12-18T22:19:38.109Z,60.90
2022-12-18T22:22:09.713Z,60.90
2022-12-18T22:24:36.651Z,60.90
2022-12-18T22:27:03.651Z,60.80
2022-12-18T22:29:49.799Z,60.80
2022-12-18T22:32:21.283Z,60.90
2022-12-18T22:35:04.860Z,60.90
2022-12-18T22:37:34.200Z,60.90
2022-12-18T22:40:03.290Z,60.90
2022-12-18T22:42:31.581Z,60.70
2022-12-18T22:45:01.123Z,60.70
2022-12-18T22:47:30.416Z,60.60
2022-12-18T22:49:58.286Z,60.60
2022-12-18T22:52:25.815Z,60.60
2022-12-18T22:54:54.102Z,60.50
2022-12-18T22:57:22.946Z,60.50
2022-12-18T22:59:51.132Z,60.50
2022-12-18T23:02:19.299Z,60.50
2022-12-18T23:04:47.743Z,60.40
2022-12-18T23:07:15.659Z,60.40
2022-12-18T23:09:42.925Z,60.40
2022-12-18T23:12:17.308Z,60.30
2022-12-18T23:14:44.549Z,60.20
2022-12-18T23:17:11.614Z,60.20
2022-12-18T23:19:39.368Z,60.10
2022-12-18T23:22:11.799Z,60.30
2022-12-18T23:24:39.563Z,59.90
2022-12-18T23:27:09.418Z,59.90
2022-12-18T23:29:40.215Z,59.80
2022-12-18T23:32:07.642Z,59.90
2022-12-18T23:34:34.836Z,59.90
2022-12-18T23:37:04.035Z,59.80
2022-12-18T23:39:31.119Z,59.70
2022-12-18T23:41:59.268Z,59.80
2022-12-18T23:44:26.642Z,59.60
2022-12-18T23:46:53.723Z,59.30
2022-12-18T23:49:20.759Z,59.50
2022-12-18T23:51:47.800Z,59.50
2022-12-18T23:54:14.709Z,59.60
2022-12-18T23:56:41.663Z,59.70
2022-12-18T23:59:08.666Z,59.70
